Wolf Creek Observed Data For Previous 48 Hours

Caption
Day and Hour Reservoir Elevation (behind dam)* Tailwater Elevation (below dam)* Average Hourly Discharge*
5/20/2018 1 AM CDT 722.38 545.58 20
5/20/2018 2 AM CDT 722.39 544.39 20
5/20/2018 3 AM CDT 722.40 543.70 20
5/20/2018 4 AM CDT 722.41 543.11 20
5/20/2018 5 AM CDT 722.42 542.82 20
5/20/2018 6 AM CDT 722.43 542.53 20
5/20/2018 7 AM CDT 722.43 542.43 20
5/20/2018 8 AM CDT 722.43 542.33 20
5/20/2018 9 AM CDT 722.43 542.23 20
5/20/2018 10 AM CDT 722.43 545.33 3,420
5/20/2018 11 AM CDT 722.42 545.62 3,420
5/20/2018 12 PM CDT 722.41 550.31 10,370
5/20/2018 1 PM CDT 722.41 551.54 11,573
5/20/2018 2 PM CDT 722.41 552.78 12,777
5/20/2018 3 PM CDT 722.41 554.01 13,980
5/20/2018 4 PM CDT 722.41 554.51 13,980
5/20/2018 5 PM CDT 722.41 554.71 13,980
5/20/2018 6 PM CDT 722.41 554.91 13,980
5/20/2018 7 PM CDT 722.41 552.31 6,960
5/20/2018 8 PM CDT 722.41 549.01 20
5/20/2018 9 PM CDT 722.41 547.01 20
5/20/2018 10 PM CDT 722.41 545.01 20
5/20/2018 11 PM CDT 722.41 544.01 20
5/21/2018 12 AM CDT 722.41 543.61 20
5/21/2018 1 AM CDT 722.43 543.23 20
5/21/2018 2 AM CDT 722.43 543.03 20
5/21/2018 3 AM CDT 722.43 542.83 20
5/21/2018 4 AM CDT 722.45 542.65 20
5/21/2018 5 AM CDT 722.45 542.45 20
5/21/2018 6 AM CDT 722.45 545.65 3,420
5/21/2018 7 AM CDT 722.53 543.03 20
5/21/2018 8 AM CDT 722.53 543.03 20
5/21/2018 9 AM CDT 722.52 547.42 6,860
5/21/2018 10 AM CDT 722.50 552.40 13,900
5/21/2018 11 AM CDT 722.47 553.27 13,940
5/21/2018 12 PM CDT 722.46 553.86 13,940
5/21/2018 1 PM CDT 722.45 554.35 13,980
5/21/2018 2 PM CDT 722.44 554.44 13,980
5/21/2018 3 PM CDT 722.43 554.53 13,980
5/21/2018 4 PM CDT 722.42 554.62 13,980
5/21/2018 5 PM CDT 722.41 554.71 13,980
5/21/2018 6 PM CDT 722.40 554.80 13,980
5/21/2018 7 PM CDT 722.40 554.80 13,980
5/21/2018 8 PM CDT 722.40 554.80 13,980
5/21/2018 9 PM CDT 722.38 554.78 13,980
5/21/2018 10 PM CDT 722.38 554.78 13,980
5/21/2018 11 PM CDT 722.38 552.38 6,960
5/22/2018 12 AM CDT 722.38 549.68 20
5/22/2018 1 AM CDT 722.38 547.68 20
5/22/2018 2 AM CDT 722.38 545.58 20
5/22/2018 3 AM CDT 722.38 544.48 20
5/22/2018 4 AM CDT 722.38 544.18 20
5/22/2018 5 AM CDT 722.38 543.88 20
5/22/2018 6 AM CDT 722.38 543.68 20

Elevations are in feet above sea level. Discharges are in cubic feet per second and are reported at the end of the hour.